sensor_id;sensor_type;location;lat;lon;timestamp;P1;durP1;ratioP1;P2;durP2;ratioP2
28009;SDS011;15334;49.494;8.410;2022-12-07T00:01:52;13.35;;;5.82;;
28009;SDS011;15334;49.494;8.410;2022-12-07T00:04:20;14.77;;;6.68;;
28009;SDS011;15334;49.494;8.410;2022-12-07T00:06:50;13.48;;;6.93;;
28009;SDS011;15334;49.494;8.410;2022-12-07T00:09:19;14.60;;;6.78;;
28009;SDS011;15334;49.494;8.410;2022-12-07T00:11:48;14.70;;;7.00;;
28009;SDS011;15334;49.494;8.410;2022-12-07T00:14:17;12.77;;;5.93;;
28009;SDS011;15334;49.494;8.410;2022-12-07T00:16:46;11.30;;;5.68;;
28009;SDS011;15334;49.494;8.410;2022-12-07T00:19:17;11.70;;;5.88;;
28009;SDS011;15334;49.494;8.410;2022-12-07T00:21:47;14.00;;;6.72;;
28009;SDS011;15334;49.494;8.410;2022-12-07T00:24:15;12.77;;;5.60;;
28009;SDS011;15334;49.494;8.410;2022-12-07T00:26:44;14.65;;;5.85;;
28009;SDS011;15334;49.494;8.410;2022-12-07T00:29:13;15.27;;;6.82;;
28009;SDS011;15334;49.494;8.410;2022-12-07T00:31:44;12.55;;;6.13;;
28009;SDS011;15334;49.494;8.410;2022-12-07T00:34:13;13.15;;;6.55;;
28009;SDS011;15334;49.494;8.410;2022-12-07T00:36:44;13.27;;;6.07;;
28009;SDS011;15334;49.494;8.410;2022-12-07T00:39:12;11.88;;;6.10;;
28009;SDS011;15334;49.494;8.410;2022-12-07T00:41:40;18.42;;;7.20;;
28009;SDS011;15334;49.494;8.410;2022-12-07T00:44:09;14.02;;;6.07;;
28009;SDS011;15334;49.494;8.410;2022-12-07T00:46:39;14.77;;;7.00;;
28009;SDS011;15334;49.494;8.410;2022-12-07T00:49:07;14.40;;;6.45;;
28009;SDS011;15334;49.494;8.410;2022-12-07T00:51:35;13.90;;;6.90;;
28009;SDS011;15334;49.494;8.410;2022-12-07T00:54:04;14.73;;;5.78;;
28009;SDS011;15334;49.494;8.410;2022-12-07T00:56:32;12.88;;;6.38;;
28009;SDS011;15334;49.494;8.410;2022-12-07T00:59:02;12.30;;;6.43;;
28009;SDS011;15334;49.494;8.410;2022-12-07T01:01:32;14.32;;;6.20;;
28009;SDS011;15334;49.494;8.410;2022-12-07T01:04:02;14.95;;;6.25;;
28009;SDS011;15334;49.494;8.410;2022-12-07T01:06:30;12.00;;;5.40;;
28009;SDS011;15334;49.494;8.410;2022-12-07T01:08:59;11.45;;;5.97;;
28009;SDS011;15334;49.494;8.410;2022-12-07T01:11:29;12.60;;;6.57;;
28009;SDS011;15334;49.494;8.410;2022-12-07T01:13:59;11.65;;;6.40;;
28009;SDS011;15334;49.494;8.410;2022-12-07T01:16:28;12.25;;;5.88;;
28009;SDS011;15334;49.494;8.410;2022-12-07T01:18:58;12.95;;;5.90;;
28009;SDS011;15334;49.494;8.410;2022-12-07T01:21:28;13.60;;;5.70;;
28009;SDS011;15334;49.494;8.410;2022-12-07T01:24:00;12.13;;;6.07;;
28009;SDS011;15334;49.494;8.410;2022-12-07T01:26:33;13.63;;;5.93;;
28009;SDS011;15334;49.494;8.410;2022-12-07T01:29:01;8.93;;;5.07;;
28009;SDS011;15334;49.494;8.410;2022-12-07T01:31:30;15.30;;;5.78;;
28009;SDS011;15334;49.494;8.410;2022-12-07T01:33:58;14.35;;;6.07;;
28009;SDS011;15334;49.494;8.410;2022-12-07T01:36:27;14.80;;;6.63;;
28009;SDS011;15334;49.494;8.410;2022-12-07T01:38:57;15.48;;;6.22;;
28009;SDS011;15334;49.494;8.410;2022-12-07T01:41:27;12.60;;;5.80;;
28009;SDS011;15334;49.494;8.410;2022-12-07T01:44:12;11.35;;;5.40;;
28009;SDS011;15334;49.494;8.410;2022-12-07T01:46:45;13.10;;;6.00;;
28009;SDS011;15334;49.494;8.410;2022-12-07T01:49:16;13.60;;;5.72;;
28009;SDS011;15334;49.494;8.410;2022-12-07T01:51:48;11.05;;;5.13;;
28009;SDS011;15334;49.494;8.410;2022-12-07T01:54:18;17.80;;;6.30;;
28009;SDS011;15334;49.494;8.410;2022-12-07T01:56:49;16.00;;;6.43;;
28009;SDS011;15334;49.494;8.410;2022-12-07T01:59:21;13.02;;;5.78;;
28009;SDS011;15334;49.494;8.410;2022-12-07T02:01:52;19.55;;;6.05;;
28009;SDS011;15334;49.494;8.410;2022-12-07T02:04:22;14.95;;;6.50;;
28009;SDS011;15334;49.494;8.410;2022-12-07T02:06:50;10.70;;;4.95;;
28009;SDS011;15334;49.494;8.410;2022-12-07T02:09:19;17.55;;;6.53;;
28009;SDS011;15334;49.494;8.410;2022-12-07T02:11:47;13.20;;;6.03;;
28009;SDS011;15334;49.494;8.410;2022-12-07T02:14:18;18.95;;;6.18;;
28009;SDS011;15334;49.494;8.410;2022-12-07T02:16:51;16.35;;;6.68;;
28009;SDS011;15334;49.494;8.410;2022-12-07T02:22:40;12.63;;;5.78;;
28009;SDS011;15334;49.494;8.410;2022-12-07T02:25:22;13.57;;;5.63;;
28009;SDS011;15334;49.494;8.410;2022-12-07T02:28:04;15.80;;;7.32;;
28009;SDS011;15334;49.494;8.410;2022-12-07T02:30:42;17.23;;;7.53;;
28009;SDS011;15334;49.494;8.410;2022-12-07T02:33:16;15.30;;;6.82;;
28009;SDS011;15334;49.494;8.410;2022-12-07T02:38:18;14.63;;;5.70;;
28009;SDS011;15334;49.494;8.410;2022-12-07T02:40:53;16.08;;;6.53;;
28009;SDS011;15334;49.494;8.410;2022-12-07T02:43:27;13.20;;;6.03;;
28009;SDS011;15334;49.494;8.410;2022-12-07T02:46:00;16.98;;;6.57;;
28009;SDS011;15334;49.494;8.410;2022-12-07T02:48:31;14.70;;;6.13;;
28009;SDS011;15334;49.494;8.410;2022-12-07T02:51:03;14.85;;;6.75;;
28009;SDS011;15334;49.494;8.410;2022-12-07T02:53:32;11.18;;;5.13;;
28009;SDS011;15334;49.494;8.410;2022-12-07T02:56:01;13.38;;;5.43;;
28009;SDS011;15334;49.494;8.410;2022-12-07T02:58:37;12.30;;;5.72;;
28009;SDS011;15334;49.494;8.410;2022-12-07T03:01:17;11.32;;;5.15;;
28009;SDS011;15334;49.494;8.410;2022-12-07T03:03:58;12.40;;;5.60;;
28009;SDS011;15334;49.494;8.410;2022-12-07T03:06:33;11.60;;;5.07;;
28009;SDS011;15334;49.494;8.410;2022-12-07T03:09:08;12.38;;;4.90;;
28009;SDS011;15334;49.494;8.410;2022-12-07T03:11:43;10.05;;;5.38;;
28009;SDS011;15334;49.494;8.410;2022-12-07T03:14:15;12.48;;;5.68;;
28009;SDS011;15334;49.494;8.410;2022-12-07T03:16:52;14.20;;;5.78;;
28009;SDS011;15334;49.494;8.410;2022-12-07T03:19:25;14.40;;;6.80;;
28009;SDS011;15334;49.494;8.410;2022-12-07T03:21:55;11.38;;;5.82;;
28009;SDS011;15334;49.494;8.410;2022-12-07T03:24:26;11.68;;;5.13;;
28009;SDS011;15334;49.494;8.410;2022-12-07T03:26:58;11.45;;;6.13;;
28009;SDS011;15334;49.494;8.410;2022-12-07T03:29:33;12.90;;;6.00;;
28009;SDS011;15334;49.494;8.410;2022-12-07T03:32:06;11.65;;;6.25;;
28009;SDS011;15334;49.494;8.410;2022-12-07T03:34:40;11.90;;;6.15;;
28009;SDS011;15334;49.494;8.410;2022-12-07T03:39:44;11.35;;;4.93;;
28009;SDS011;15334;49.494;8.410;2022-12-07T03:42:18;13.60;;;5.93;;
28009;SDS011;15334;49.494;8.410;2022-12-07T03:44:46;12.00;;;6.68;;
28009;SDS011;15334;49.494;8.410;2022-12-07T03:47:18;13.55;;;5.47;;
28009;SDS011;15334;49.494;8.410;2022-12-07T03:49:53;12.57;;;6.43;;
28009;SDS011;15334;49.494;8.410;2022-12-07T03:52:28;13.82;;;5.40;;
28009;SDS011;15334;49.494;8.410;2022-12-07T03:55:02;10.98;;;5.55;;
28009;SDS011;15334;49.494;8.410;2022-12-07T03:57:36;13.82;;;6.10;;
28009;SDS011;15334;49.494;8.410;2022-12-07T04:00:07;13.50;;;6.13;;
28009;SDS011;15334;49.494;8.410;2022-12-07T04:02:38;14.00;;;6.28;;
28009;SDS011;15334;49.494;8.410;2022-12-07T04:05:06;12.82;;;5.97;;
28009;SDS011;15334;49.494;8.410;2022-12-07T04:07:35;12.48;;;5.88;;
28009;SDS011;15334;49.494;8.410;2022-12-07T04:10:03;14.32;;;5.65;;
28009;SDS011;15334;49.494;8.410;2022-12-07T04:12:32;18.38;;;5.25;;
28009;SDS011;15334;49.494;8.410;2022-12-07T04:15:00;12.13;;;5.07;;
28009;SDS011;15334;49.494;8.410;2022-12-07T04:17:28;15.82;;;5.93;;
28009;SDS011;15334;49.494;8.410;2022-12-07T04:19:58;9.40;;;4.68;;
28009;SDS011;15334;49.494;8.410;2022-12-07T04:22:26;18.17;;;6.15;;
28009;SDS011;15334;49.494;8.410;2022-12-07T04:24:55;16.35;;;5.63;;
28009;SDS011;15334;49.494;8.410;2022-12-07T04:27:22;11.90;;;5.25;;
28009;SDS011;15334;49.494;8.410;2022-12-07T04:29:50;11.32;;;5.20;;
28009;SDS011;15334;49.494;8.410;2022-12-07T04:32:18;11.73;;;5.47;;
28009;SDS011;15334;49.494;8.410;2022-12-07T04:34:47;11.80;;;4.85;;
28009;SDS011;15334;49.494;8.410;2022-12-07T04:37:22;11.65;;;5.05;;
28009;SDS011;15334;49.494;8.410;2022-12-07T04:39:50;13.93;;;5.07;;
28009;SDS011;15334;49.494;8.410;2022-12-07T04:42:18;11.93;;;5.50;;
28009;SDS011;15334;49.494;8.410;2022-12-07T04:44:46;15.35;;;5.53;;
28009;SDS011;15334;49.494;8.410;2022-12-07T04:47:14;12.82;;;5.22;;
28009;SDS011;15334;49.494;8.410;2022-12-07T04:49:42;12.35;;;5.68;;
28009;SDS011;15334;49.494;8.410;2022-12-07T04:52:10;12.10;;;5.57;;
28009;SDS011;15334;49.494;8.410;2022-12-07T04:54:39;13.55;;;5.50;;
28009;SDS011;15334;49.494;8.410;2022-12-07T04:57:07;12.05;;;5.97;;
28009;SDS011;15334;49.494;8.410;2022-12-07T04:59:35;15.65;;;6.72;;
28009;SDS011;15334;49.494;8.410;2022-12-07T05:02:10;16.27;;;5.72;;
28009;SDS011;15334;49.494;8.410;2022-12-07T05:04:39;10.38;;;5.10;;
28009;SDS011;15334;49.494;8.410;2022-12-07T05:07:07;11.95;;;5.75;;
28009;SDS011;15334;49.494;8.410;2022-12-07T05:09:35;15.88;;;5.93;;
28009;SDS011;15334;49.494;8.410;2022-12-07T05:12:05;12.27;;;5.55;;
28009;SDS011;15334;49.494;8.410;2022-12-07T05:14:33;11.63;;;5.32;;
28009;SDS011;15334;49.494;8.410;2022-12-07T05:17:01;13.90;;;5.40;;
28009;SDS011;15334;49.494;8.410;2022-12-07T05:19:30;14.18;;;4.95;;
28009;SDS011;15334;49.494;8.410;2022-12-07T05:22:00;11.32;;;5.32;;
28009;SDS011;15334;49.494;8.410;2022-12-07T05:24:28;13.25;;;5.47;;
28009;SDS011;15334;49.494;8.410;2022-12-07T05:26:56;14.40;;;5.78;;
28009;SDS011;15334;49.494;8.410;2022-12-07T05:29:26;16.48;;;6.30;;
28009;SDS011;15334;49.494;8.410;2022-12-07T05:31:54;11.60;;;5.13;;
28009;SDS011;15334;49.494;8.410;2022-12-07T05:34:25;13.27;;;6.10;;
28009;SDS011;15334;49.494;8.410;2022-12-07T05:36:53;14.82;;;5.40;;
28009;SDS011;15334;49.494;8.410;2022-12-07T05:39:21;14.30;;;5.88;;
28009;SDS011;15334;49.494;8.410;2022-12-07T05:41:49;12.38;;;5.03;;
28009;SDS011;15334;49.494;8.410;2022-12-07T05:44:36;12.43;;;5.60;;
28009;SDS011;15334;49.494;8.410;2022-12-07T05:47:04;11.32;;;4.45;;
28009;SDS011;15334;49.494;8.410;2022-12-07T05:49:32;11.52;;;5.18;;
28009;SDS011;15334;49.494;8.410;2022-12-07T05:52:00;11.15;;;5.15;;
28009;SDS011;15334;49.494;8.410;2022-12-07T05:54:28;11.50;;;5.22;;
28009;SDS011;15334;49.494;8.410;2022-12-07T05:56:56;9.55;;;5.03;;
28009;SDS011;15334;49.494;8.410;2022-12-07T05:59:25;11.63;;;5.00;;
28009;SDS011;15334;49.494;8.410;2022-12-07T06:01:55;10.73;;;5.43;;
28009;SDS011;15334;49.494;8.410;2022-12-07T06:04:25;10.60;;;4.38;;
28009;SDS011;15334;49.494;8.410;2022-12-07T06:06:55;14.63;;;5.25;;
28009;SDS011;15334;49.494;8.410;2022-12-07T06:09:23;9.75;;;5.47;;
28009;SDS011;15334;49.494;8.410;2022-12-07T06:11:53;11.00;;;5.07;;
28009;SDS011;15334;49.494;8.410;2022-12-07T06:14:39;13.23;;;5.47;;
28009;SDS011;15334;49.494;8.410;2022-12-07T06:17:08;11.50;;;4.95;;
28009;SDS011;15334;49.494;8.410;2022-12-07T06:19:39;10.55;;;5.13;;
28009;SDS011;15334;49.494;8.410;2022-12-07T06:22:10;11.45;;;6.20;;
28009;SDS011;15334;49.494;8.410;2022-12-07T06:24:39;12.75;;;6.13;;
28009;SDS011;15334;49.494;8.410;2022-12-07T06:27:07;13.15;;;5.63;;
28009;SDS011;15334;49.494;8.410;2022-12-07T06:29:36;15.82;;;5.93;;
28009;SDS011;15334;49.494;8.410;2022-12-07T06:32:04;16.02;;;7.05;;
28009;SDS011;15334;49.494;8.410;2022-12-07T06:34:34;15.32;;;6.70;;
28009;SDS011;15334;49.494;8.410;2022-12-07T06:37:02;11.20;;;5.00;;
28009;SDS011;15334;49.494;8.410;2022-12-07T06:39:30;11.05;;;4.85;;
28009;SDS011;15334;49.494;8.410;2022-12-07T06:41:58;13.48;;;5.82;;
28009;SDS011;15334;49.494;8.410;2022-12-07T06:44:26;13.02;;;6.28;;
28009;SDS011;15334;49.494;8.410;2022-12-07T06:46:54;15.82;;;6.43;;
28009;SDS011;15334;49.494;8.410;2022-12-07T06:49:44;14.75;;;6.10;;
28009;SDS011;15334;49.494;8.410;2022-12-07T06:52:14;15.48;;;6.55;;
28009;SDS011;15334;49.494;8.410;2022-12-07T06:54:42;15.05;;;6.07;;
28009;SDS011;15334;49.494;8.410;2022-12-07T06:57:11;16.10;;;7.10;;
28009;SDS011;15334;49.494;8.410;2022-12-07T06:59:39;12.70;;;5.68;;
28009;SDS011;15334;49.494;8.410;2022-12-07T07:02:07;12.85;;;6.50;;
28009;SDS011;15334;49.494;8.410;2022-12-07T07:04:36;15.60;;;6.75;;
28009;SDS011;15334;49.494;8.410;2022-12-07T07:07:05;16.90;;;5.93;;
28009;SDS011;15334;49.494;8.410;2022-12-07T07:09:33;12.73;;;6.63;;
28009;SDS011;15334;49.494;8.410;2022-12-07T07:12:02;13.52;;;5.88;;
28009;SDS011;15334;49.494;8.410;2022-12-07T07:14:30;15.90;;;6.45;;
28009;SDS011;15334;49.494;8.410;2022-12-07T07:16:59;11.60;;;6.20;;
28009;SDS011;15334;49.494;8.410;2022-12-07T07:19:29;14.18;;;6.88;;
28009;SDS011;15334;49.494;8.410;2022-12-07T07:21:57;13.38;;;5.85;;
28009;SDS011;15334;49.494;8.410;2022-12-07T07:24:27;14.15;;;6.45;;
28009;SDS011;15334;49.494;8.410;2022-12-07T07:26:55;15.05;;;6.88;;
28009;SDS011;15334;49.494;8.410;2022-12-07T07:29:25;15.43;;;6.50;;
28009;SDS011;15334;49.494;8.410;2022-12-07T07:31:53;18.27;;;6.53;;
28009;SDS011;15334;49.494;8.410;2022-12-07T07:34:31;14.40;;;5.68;;
28009;SDS011;15334;49.494;8.410;2022-12-07T07:36:59;15.05;;;6.88;;
28009;SDS011;15334;49.494;8.410;2022-12-07T07:39:33;17.08;;;6.88;;
28009;SDS011;15334;49.494;8.410;2022-12-07T07:42:07;14.60;;;6.68;;
28009;SDS011;15334;49.494;8.410;2022-12-07T07:44:37;19.55;;;7.47;;
28009;SDS011;15334;49.494;8.410;2022-12-07T07:49:36;17.77;;;7.57;;
28009;SDS011;15334;49.494;8.410;2022-12-07T07:52:11;17.65;;;7.90;;
28009;SDS011;15334;49.494;8.410;2022-12-07T07:54:40;15.05;;;7.72;;
28009;SDS011;15334;49.494;8.410;2022-12-07T07:57:08;18.08;;;8.02;;
28009;SDS011;15334;49.494;8.410;2022-12-07T07:59:37;18.13;;;7.88;;
28009;SDS011;15334;49.494;8.410;2022-12-07T08:02:05;19.65;;;8.00;;
28009;SDS011;15334;49.494;8.410;2022-12-07T08:04:33;20.08;;;8.13;;
28009;SDS011;15334;49.494;8.410;2022-12-07T08:09:37;14.20;;;7.07;;
28009;SDS011;15334;49.494;8.410;2022-12-07T08:12:08;14.68;;;7.13;;
28009;SDS011;15334;49.494;8.410;2022-12-07T08:14:36;17.20;;;7.35;;
28009;SDS011;15334;49.494;8.410;2022-12-07T08:17:05;16.65;;;7.65;;
28009;SDS011;15334;49.494;8.410;2022-12-07T08:19:33;19.80;;;7.40;;
28009;SDS011;15334;49.494;8.410;2022-12-07T08:22:03;16.77;;;6.65;;
28009;SDS011;15334;49.494;8.410;2022-12-07T08:24:35;16.08;;;7.38;;
28009;SDS011;15334;49.494;8.410;2022-12-07T08:27:07;17.05;;;8.05;;
28009;SDS011;15334;49.494;8.410;2022-12-07T08:29:35;16.70;;;6.70;;
28009;SDS011;15334;49.494;8.410;2022-12-07T08:32:06;16.77;;;7.60;;
28009;SDS011;15334;49.494;8.410;2022-12-07T08:34:35;16.80;;;7.68;;
28009;SDS011;15334;49.494;8.410;2022-12-07T08:37:03;14.93;;;7.00;;
28009;SDS011;15334;49.494;8.410;2022-12-07T08:39:34;15.13;;;7.22;;
28009;SDS011;15334;49.494;8.410;2022-12-07T08:42:03;14.38;;;7.03;;
28009;SDS011;15334;49.494;8.410;2022-12-07T08:44:32;13.85;;;7.20;;
28009;SDS011;15334;49.494;8.410;2022-12-07T08:47:01;12.48;;;6.85;;
28009;SDS011;15334;49.494;8.410;2022-12-07T08:49:33;15.75;;;7.38;;
28009;SDS011;15334;49.494;8.410;2022-12-07T08:52:05;14.52;;;7.40;;
28009;SDS011;15334;49.494;8.410;2022-12-07T08:54:33;12.73;;;6.22;;
28009;SDS011;15334;49.494;8.410;2022-12-07T08:57:02;13.45;;;6.30;;
28009;SDS011;15334;49.494;8.410;2022-12-07T08:59:33;15.45;;;7.45;;
28009;SDS011;15334;49.494;8.410;2022-12-07T09:02:03;13.65;;;6.15;;
28009;SDS011;15334;49.494;8.410;2022-12-07T09:04:31;13.15;;;6.57;;
28009;SDS011;15334;49.494;8.410;2022-12-07T09:07:01;16.77;;;6.90;;
28009;SDS011;15334;49.494;8.410;2022-12-07T09:09:33;13.50;;;6.55;;
28009;SDS011;15334;49.494;8.410;2022-12-07T09:12:01;12.77;;;6.40;;
28009;SDS011;15334;49.494;8.410;2022-12-07T09:14:35;11.48;;;6.40;;
28009;SDS011;15334;49.494;8.410;2022-12-07T09:17:06;15.95;;;6.72;;
28009;SDS011;15334;49.494;8.410;2022-12-07T09:19:36;14.80;;;6.30;;
28009;SDS011;15334;49.494;8.410;2022-12-07T09:22:06;13.93;;;6.78;;
28009;SDS011;15334;49.494;8.410;2022-12-07T09:24:33;15.15;;;6.38;;
28009;SDS011;15334;49.494;8.410;2022-12-07T09:27:02;16.45;;;6.75;;
28009;SDS011;15334;49.494;8.410;2022-12-07T09:29:30;12.80;;;6.75;;
28009;SDS011;15334;49.494;8.410;2022-12-07T09:31:59;15.40;;;5.97;;
28009;SDS011;15334;49.494;8.410;2022-12-07T09:34:36;17.73;;;7.28;;
28009;SDS011;15334;49.494;8.410;2022-12-07T09:37:05;15.60;;;6.32;;
28009;SDS011;15334;49.494;8.410;2022-12-07T09:39:33;16.33;;;7.10;;
28009;SDS011;15334;49.494;8.410;2022-12-07T09:42:02;14.27;;;5.70;;
28009;SDS011;15334;49.494;8.410;2022-12-07T09:44:32;13.98;;;6.60;;
28009;SDS011;15334;49.494;8.410;2022-12-07T09:47:02;13.02;;;5.78;;
28009;SDS011;15334;49.494;8.410;2022-12-07T09:49:31;13.07;;;5.70;;
28009;SDS011;15334;49.494;8.410;2022-12-07T09:52:00;12.85;;;5.85;;
28009;SDS011;15334;49.494;8.410;2022-12-07T09:54:33;13.40;;;6.00;;
28009;SDS011;15334;49.494;8.410;2022-12-07T09:59:41;13.15;;;6.10;;
28009;SDS011;15334;49.494;8.410;2022-12-07T10:02:25;13.98;;;6.50;;
28009;SDS011;15334;49.494;8.410;2022-12-07T10:05:00;12.25;;;5.72;;
28009;SDS011;15334;49.494;8.410;2022-12-07T10:07:33;13.80;;;5.78;;
28009;SDS011;15334;49.494;8.410;2022-12-07T10:10:02;13.70;;;5.78;;
28009;SDS011;15334;49.494;8.410;2022-12-07T10:12:32;14.70;;;5.90;;
28009;SDS011;15334;49.494;8.410;2022-12-07T10:15:22;13.07;;;5.90;;
28009;SDS011;15334;49.494;8.410;2022-12-07T10:17:52;11.93;;;6.03;;
28009;SDS011;15334;49.494;8.410;2022-12-07T10:20:21;10.80;;;5.35;;
28009;SDS011;15334;49.494;8.410;2022-12-07T10:22:55;13.15;;;5.72;;
28009;SDS011;15334;49.494;8.410;2022-12-07T10:25:29;12.13;;;5.50;;
28009;SDS011;15334;49.494;8.410;2022-12-07T10:28:12;10.40;;;5.30;;
28009;SDS011;15334;49.494;8.410;2022-12-07T10:30:52;9.68;;;4.38;;
28009;SDS011;15334;49.494;8.410;2022-12-07T10:33:31;9.25;;;5.07;;
28009;SDS011;15334;49.494;8.410;2022-12-07T10:36:15;11.98;;;4.95;;
28009;SDS011;15334;49.494;8.410;2022-12-07T10:38:47;10.38;;;4.47;;
28009;SDS011;15334;49.494;8.410;2022-12-07T10:41:16;10.98;;;4.95;;
28009;SDS011;15334;49.494;8.410;2022-12-07T10:43:52;10.77;;;4.30;;
28009;SDS011;15334;49.494;8.410;2022-12-07T10:49:26;12.55;;;4.47;;
28009;SDS011;15334;49.494;8.410;2022-12-07T10:52:11;10.32;;;4.85;;
28009;SDS011;15334;49.494;8.410;2022-12-07T10:54:51;11.15;;;5.38;;
28009;SDS011;15334;49.494;8.410;2022-12-07T10:57:32;10.35;;;4.55;;
28009;SDS011;15334;49.494;8.410;2022-12-07T11:00:18;10.68;;;4.80;;
28009;SDS011;15334;49.494;8.410;2022-12-07T11:05:48;11.57;;;5.10;;
28009;SDS011;15334;49.494;8.410;2022-12-07T11:08:28;9.65;;;4.35;;
28009;SDS011;15334;49.494;8.410;2022-12-07T11:11:07;10.15;;;4.88;;
28009;SDS011;15334;49.494;8.410;2022-12-07T11:13:42;11.20;;;4.25;;
28009;SDS011;15334;49.494;8.410;2022-12-07T11:16:28;11.25;;;4.55;;
28009;SDS011;15334;49.494;8.410;2022-12-07T11:19:16;9.65;;;4.57;;
28009;SDS011;15334;49.494;8.410;2022-12-07T11:21:57;10.07;;;5.63;;
28009;SDS011;15334;49.494;8.410;2022-12-07T11:27:04;11.15;;;3.92;;
28009;SDS011;15334;49.494;8.410;2022-12-07T11:29:53;11.00;;;3.97;;
28009;SDS011;15334;49.494;8.410;2022-12-07T11:35:35;9.90;;;4.13;;
28009;SDS011;15334;49.494;8.410;2022-12-07T11:38:10;11.10;;;4.25;;
28009;SDS011;15334;49.494;8.410;2022-12-07T11:40:43;11.27;;;4.82;;
28009;SDS011;15334;49.494;8.410;2022-12-07T11:43:17;10.20;;;4.35;;
28009;SDS011;15334;49.494;8.410;2022-12-07T11:45:52;8.75;;;4.10;;
28009;SDS011;15334;49.494;8.410;2022-12-07T11:48:28;6.85;;;2.72;;
28009;SDS011;15334;49.494;8.410;2022-12-07T11:51:02;6.70;;;3.25;;
28009;SDS011;15334;49.494;8.410;2022-12-07T11:53:33;12.40;;;3.90;;
28009;SDS011;15334;49.494;8.410;2022-12-07T11:56:08;8.63;;;3.63;;
28009;SDS011;15334;49.494;8.410;2022-12-07T11:58:44;11.30;;;3.95;;
28009;SDS011;15334;49.494;8.410;2022-12-07T12:01:22;6.35;;;2.75;;
28009;SDS011;15334;49.494;8.410;2022-12-07T12:03:58;7.53;;;3.20;;
28009;SDS011;15334;49.494;8.410;2022-12-07T12:06:33;9.02;;;2.83;;
28009;SDS011;15334;49.494;8.410;2022-12-07T12:09:05;6.38;;;2.53;;
28009;SDS011;15334;49.494;8.410;2022-12-07T12:12:14;6.03;;;2.45;;
28009;SDS011;15334;49.494;8.410;2022-12-07T12:15:38;12.18;;;3.20;;
28009;SDS011;15334;49.494;8.410;2022-12-07T12:21:10;9.73;;;3.25;;
28009;SDS011;15334;49.494;8.410;2022-12-07T12:23:45;8.45;;;3.40;;
28009;SDS011;15334;49.494;8.410;2022-12-07T12:26:20;9.55;;;2.97;;
28009;SDS011;15334;49.494;8.410;2022-12-07T12:28:51;7.45;;;2.95;;
28009;SDS011;15334;49.494;8.410;2022-12-07T12:31:30;9.23;;;3.28;;
28009;SDS011;15334;49.494;8.410;2022-12-07T12:34:03;6.53;;;2.92;;
28009;SDS011;15334;49.494;8.410;2022-12-07T12:36:55;6.88;;;2.63;;
28009;SDS011;15334;49.494;8.410;2022-12-07T12:39:23;9.23;;;3.38;;
28009;SDS011;15334;49.494;8.410;2022-12-07T12:41:54;6.07;;;3.38;;
28009;SDS011;15334;49.494;8.410;2022-12-07T12:54:01;5.82;;;2.58;;
28009;SDS011;15334;49.494;8.410;2022-12-07T12:56:35;10.82;;;3.33;;
28009;SDS011;15334;49.494;8.410;2022-12-07T12:59:21;3.95;;;1.90;;
28009;SDS011;15334;49.494;8.410;2022-12-07T13:01:54;5.38;;;2.80;;
28009;SDS011;15334;49.494;8.410;2022-12-07T13:04:28;5.88;;;2.47;;
28009;SDS011;15334;49.494;8.410;2022-12-07T13:07:13;7.28;;;2.55;;
28009;SDS011;15334;49.494;8.410;2022-12-07T13:10:32;6.10;;;2.33;;
28009;SDS011;15334;49.494;8.410;2022-12-07T13:25:27;3.85;;;1.70;;
28009;SDS011;15334;49.494;8.410;2022-12-07T13:28:02;7.53;;;2.07;;
28009;SDS011;15334;49.494;8.410;2022-12-07T13:30:40;5.10;;;1.70;;
28009;SDS011;15334;49.494;8.410;2022-12-07T13:33:17;4.28;;;1.52;;
28009;SDS011;15334;49.494;8.410;2022-12-07T13:38:27;3.72;;;1.60;;
28009;SDS011;15334;49.494;8.410;2022-12-07T13:41:01;3.97;;;1.80;;
28009;SDS011;15334;49.494;8.410;2022-12-07T13:43:43;7.10;;;2.33;;
28009;SDS011;15334;49.494;8.410;2022-12-07T13:46:12;4.30;;;1.88;;
28009;SDS011;15334;49.494;8.410;2022-12-07T13:48:44;5.70;;;1.70;;
28009;SDS011;15334;49.494;8.410;2022-12-07T13:51:16;4.68;;;1.50;;
28009;SDS011;15334;49.494;8.410;2022-12-07T13:53:49;3.67;;;1.55;;
28009;SDS011;15334;49.494;8.410;2022-12-07T13:56:20;4.22;;;2.10;;
28009;SDS011;15334;49.494;8.410;2022-12-07T13:58:53;4.35;;;1.48;;
28009;SDS011;15334;49.494;8.410;2022-12-07T14:01:22;5.20;;;2.50;;
28009;SDS011;15334;49.494;8.410;2022-12-07T14:03:52;6.75;;;2.67;;
28009;SDS011;15334;49.494;8.410;2022-12-07T14:06:22;6.65;;;2.65;;
28009;SDS011;15334;49.494;8.410;2022-12-07T14:09:14;4.65;;;2.25;;
28009;SDS011;15334;49.494;8.410;2022-12-07T14:11:45;8.50;;;2.72;;
28009;SDS011;15334;49.494;8.410;2022-12-07T14:14:16;7.50;;;2.90;;
28009;SDS011;15334;49.494;8.410;2022-12-07T14:16:54;4.78;;;2.28;;
28009;SDS011;15334;49.494;8.410;2022-12-07T14:22:24;5.45;;;2.35;;
28009;SDS011;15334;49.494;8.410;2022-12-07T14:27:53;6.90;;;2.80;;
28009;SDS011;15334;49.494;8.410;2022-12-07T14:30:24;7.57;;;3.22;;
28009;SDS011;15334;49.494;8.410;2022-12-07T14:32:54;8.80;;;3.30;;
28009;SDS011;15334;49.494;8.410;2022-12-07T14:35:27;5.78;;;2.65;;
28009;SDS011;15334;49.494;8.410;2022-12-07T14:37:56;7.85;;;2.92;;
28009;SDS011;15334;49.494;8.410;2022-12-07T14:40:26;7.35;;;2.80;;
28009;SDS011;15334;49.494;8.410;2022-12-07T14:42:56;5.53;;;2.58;;
28009;SDS011;15334;49.494;8.410;2022-12-07T14:45:30;5.10;;;2.58;;
28009;SDS011;15334;49.494;8.410;2022-12-07T14:47:58;4.97;;;2.30;;
28009;SDS011;15334;49.494;8.410;2022-12-07T14:50:48;5.57;;;2.45;;
28009;SDS011;15334;49.494;8.410;2022-12-07T14:53:39;7.47;;;2.70;;
28009;SDS011;15334;49.494;8.410;2022-12-07T14:56:11;5.40;;;2.30;;
28009;SDS011;15334;49.494;8.410;2022-12-07T14:58:42;4.10;;;2.05;;
28009;SDS011;15334;49.494;8.410;2022-12-07T15:01:12;8.35;;;2.50;;
28009;SDS011;15334;49.494;8.410;2022-12-07T15:03:42;9.48;;;2.65;;
28009;SDS011;15334;49.494;8.410;2022-12-07T15:06:13;6.32;;;2.35;;
28009;SDS011;15334;49.494;8.410;2022-12-07T15:08:42;5.67;;;2.00;;
28009;SDS011;15334;49.494;8.410;2022-12-07T15:11:13;5.10;;;2.10;;
28009;SDS011;15334;49.494;8.410;2022-12-07T15:13:41;3.85;;;1.52;;
28009;SDS011;15334;49.494;8.410;2022-12-07T15:16:26;4.03;;;2.03;;
28009;SDS011;15334;49.494;8.410;2022-12-07T15:19:15;5.90;;;2.15;;
28009;SDS011;15334;49.494;8.410;2022-12-07T15:21:54;3.38;;;1.90;;
28009;SDS011;15334;49.494;8.410;2022-12-07T15:24:22;3.28;;;1.67;;
28009;SDS011;15334;49.494;8.410;2022-12-07T15:26:52;4.25;;;1.70;;
28009;SDS011;15334;49.494;8.410;2022-12-07T15:29:20;5.65;;;2.10;;
28009;SDS011;15334;49.494;8.410;2022-12-07T15:31:51;4.88;;;2.50;;
28009;SDS011;15334;49.494;8.410;2022-12-07T15:34:23;4.32;;;1.95;;
28009;SDS011;15334;49.494;8.410;2022-12-07T15:36:51;5.38;;;2.03;;
28009;SDS011;15334;49.494;8.410;2022-12-07T15:39:19;5.03;;;2.45;;
28009;SDS011;15334;49.494;8.410;2022-12-07T15:41:47;3.58;;;1.75;;
28009;SDS011;15334;49.494;8.410;2022-12-07T15:44:17;4.35;;;1.73;;
28009;SDS011;15334;49.494;8.410;2022-12-07T15:47:03;5.35;;;2.55;;
28009;SDS011;15334;49.494;8.410;2022-12-07T15:49:32;5.60;;;1.95;;
28009;SDS011;15334;49.494;8.410;2022-12-07T15:52:04;5.45;;;2.20;;
28009;SDS011;15334;49.494;8.410;2022-12-07T15:54:32;7.55;;;2.65;;
28009;SDS011;15334;49.494;8.410;2022-12-07T15:57:00;6.53;;;2.83;;
28009;SDS011;15334;49.494;8.410;2022-12-07T15:59:32;6.90;;;2.95;;
28009;SDS011;15334;49.494;8.410;2022-12-07T16:02:00;6.07;;;2.72;;
28009;SDS011;15334;49.494;8.410;2022-12-07T16:04:29;9.18;;;3.50;;
28009;SDS011;15334;49.494;8.410;2022-12-07T16:06:57;6.55;;;3.05;;
28009;SDS011;15334;49.494;8.410;2022-12-07T16:09:27;7.45;;;3.40;;